sensor_id;sensor_type;location;lat;lon;timestamp;temperature;humidity
40589;DHT22;26297;49.450;6.640;2023-05-28T00:01:30;18.80;99.90
40589;DHT22;26297;49.450;6.640;2023-05-28T00:04:37;18.70;99.90
40589;DHT22;26297;49.450;6.640;2023-05-28T00:07:43;18.70;99.90
40589;DHT22;26297;49.450;6.640;2023-05-28T00:10:52;18.70;99.90
40589;DHT22;26297;49.450;6.640;2023-05-28T00:14:05;18.70;99.90
40589;DHT22;26297;49.450;6.640;2023-05-28T00:17:20;18.70;99.90
40589;DHT22;26297;49.450;6.640;2023-05-28T00:20:24;18.70;99.90
40589;DHT22;26297;49.450;6.640;2023-05-28T00:23:34;18.70;99.90
40589;DHT22;26297;49.450;6.640;2023-05-28T00:26:41;18.70;99.90
40589;DHT22;26297;49.450;6.640;2023-05-28T00:29:49;18.70;99.90
40589;DHT22;26297;49.450;6.640;2023-05-28T00:32:55;18.70;99.90
40589;DHT22;26297;49.450;6.640;2023-05-28T00:36:02;18.70;99.90
40589;DHT22;26297;49.450;6.640;2023-05-28T00:39:11;18.70;99.90
40589;DHT22;26297;49.450;6.640;2023-05-28T00:42:18;18.70;99.90
40589;DHT22;26297;49.450;6.640;2023-05-28T00:45:31;18.70;99.90
40589;DHT22;26297;49.450;6.640;2023-05-28T00:48:37;18.70;99.90
40589;DHT22;26297;49.450;6.640;2023-05-28T00:51:46;18.70;99.90
40589;DHT22;26297;49.450;6.640;2023-05-28T00:54:51;18.70;99.90
40589;DHT22;26297;49.450;6.640;2023-05-28T00:58:14;18.70;99.90
40589;DHT22;26297;49.450;6.640;2023-05-28T01:01:19;18.70;99.90
40589;DHT22;26297;49.450;6.640;2023-05-28T01:04:23;18.70;99.90
40589;DHT22;26297;49.450;6.640;2023-05-28T01:07:34;18.70;99.90
40589;DHT22;26297;49.450;6.640;2023-05-28T01:10:40;18.70;99.90
40589;DHT22;26297;49.450;6.640;2023-05-28T01:13:45;18.70;99.90
40589;DHT22;26297;49.450;6.640;2023-05-28T01:16:59;18.70;99.90
40589;DHT22;26297;49.450;6.640;2023-05-28T01:20:18;18.70;99.90
40589;DHT22;26297;49.450;6.640;2023-05-28T01:23:41;18.70;99.90
40589;DHT22;26297;49.450;6.640;2023-05-28T01:26:50;18.70;99.90
40589;DHT22;26297;49.450;6.640;2023-05-28T01:30:03;18.60;99.90
40589;DHT22;26297;49.450;6.640;2023-05-28T01:33:10;18.70;99.90
40589;DHT22;26297;49.450;6.640;2023-05-28T01:36:29;18.60;99.90
40589;DHT22;26297;49.450;6.640;2023-05-28T01:39:37;18.60;99.90
40589;DHT22;26297;49.450;6.640;2023-05-28T01:42:45;18.60;99.90
40589;DHT22;26297;49.450;6.640;2023-05-28T01:45:57;18.60;99.90
40589;DHT22;26297;49.450;6.640;2023-05-28T01:49:08;18.60;99.90
40589;DHT22;26297;49.450;6.640;2023-05-28T01:52:14;18.60;99.90
40589;DHT22;26297;49.450;6.640;2023-05-28T01:55:23;18.60;99.90
40589;DHT22;26297;49.450;6.640;2023-05-28T01:58:34;18.60;99.90
40589;DHT22;26297;49.450;6.640;2023-05-28T02:01:40;18.60;99.90
40589;DHT22;26297;49.450;6.640;2023-05-28T02:04:45;18.60;99.90
40589;DHT22;26297;49.450;6.640;2023-05-28T02:07:54;18.60;99.90
40589;DHT22;26297;49.450;6.640;2023-05-28T02:11:28;18.60;99.90
40589;DHT22;26297;49.450;6.640;2023-05-28T02:14:52;18.60;99.90
40589;DHT22;26297;49.450;6.640;2023-05-28T02:18:04;18.60;99.90
40589;DHT22;26297;49.450;6.640;2023-05-28T02:21:11;18.60;99.90
40589;DHT22;26297;49.450;6.640;2023-05-28T02:24:18;18.60;99.90
40589;DHT22;26297;49.450;6.640;2023-05-28T02:27:24;18.60;99.90
40589;DHT22;26297;49.450;6.640;2023-05-28T02:30:28;18.60;99.90
40589;DHT22;26297;49.450;6.640;2023-05-28T02:33:35;18.60;99.90
40589;DHT22;26297;49.450;6.640;2023-05-28T02:36:43;18.60;99.90
40589;DHT22;26297;49.450;6.640;2023-05-28T02:39:48;18.60;99.90
40589;DHT22;26297;49.450;6.640;2023-05-28T02:42:57;18.60;99.90
40589;DHT22;26297;49.450;6.640;2023-05-28T02:46:00;18.50;99.90
40589;DHT22;26297;49.450;6.640;2023-05-28T02:49:04;18.60;99.90
40589;DHT22;26297;49.450;6.640;2023-05-28T02:52:11;18.60;99.90
40589;DHT22;26297;49.450;6.640;2023-05-28T02:55:17;18.60;99.90
40589;DHT22;26297;49.450;6.640;2023-05-28T02:58:24;18.50;99.90
40589;DHT22;26297;49.450;6.640;2023-05-28T03:01:33;18.50;99.90
40589;DHT22;26297;49.450;6.640;2023-05-28T03:04:42;18.50;99.90
40589;DHT22;26297;49.450;6.640;2023-05-28T03:07:49;18.50;99.90
40589;DHT22;26297;49.450;6.640;2023-05-28T03:10:53;18.50;99.90
40589;DHT22;26297;49.450;6.640;2023-05-28T03:14:18;18.50;99.90
40589;DHT22;26297;49.450;6.640;2023-05-28T03:17:32;18.50;99.90
40589;DHT22;26297;49.450;6.640;2023-05-28T03:20:38;18.50;99.90
40589;DHT22;26297;49.450;6.640;2023-05-28T03:24:06;18.50;99.90
40589;DHT22;26297;49.450;6.640;2023-05-28T03:27:17;18.50;99.90
40589;DHT22;26297;49.450;6.640;2023-05-28T03:30:31;18.50;99.90
40589;DHT22;26297;49.450;6.640;2023-05-28T03:33:41;18.50;99.90
40589;DHT22;26297;49.450;6.640;2023-05-28T03:36:48;18.50;99.90
40589;DHT22;26297;49.450;6.640;2023-05-28T03:39:51;18.50;99.90
40589;DHT22;26297;49.450;6.640;2023-05-28T03:42:55;18.50;99.90
40589;DHT22;26297;49.450;6.640;2023-05-28T03:45:59;18.50;99.90
40589;DHT22;26297;49.450;6.640;2023-05-28T03:49:03;18.50;99.90
40589;DHT22;26297;49.450;6.640;2023-05-28T03:52:09;18.50;99.90
40589;DHT22;26297;49.450;6.640;2023-05-28T03:55:28;18.50;99.90
40589;DHT22;26297;49.450;6.640;2023-05-28T03:58:33;18.50;99.90
40589;DHT22;26297;49.450;6.640;2023-05-28T04:01:40;18.50;99.90
40589;DHT22;26297;49.450;6.640;2023-05-28T04:05:15;18.40;99.90
40589;DHT22;26297;49.450;6.640;2023-05-28T04:08:46;18.40;99.90
40589;DHT22;26297;49.450;6.640;2023-05-28T04:12:11;18.40;99.90
40589;DHT22;26297;49.450;6.640;2023-05-28T04:15:18;18.40;99.90
40589;DHT22;26297;49.450;6.640;2023-05-28T04:18:58;18.40;99.90
40589;DHT22;26297;49.450;6.640;2023-05-28T04:27:08;18.40;99.90
40589;DHT22;26297;49.450;6.640;2023-05-28T04:30:41;18.40;99.90
40589;DHT22;26297;49.450;6.640;2023-05-28T04:36:51;18.40;99.90
40589;DHT22;26297;49.450;6.640;2023-05-28T04:39:55;18.40;99.90
40589;DHT22;26297;49.450;6.640;2023-05-28T04:42:58;18.40;99.90
40589;DHT22;26297;49.450;6.640;2023-05-28T04:46:02;18.40;99.90
40589;DHT22;26297;49.450;6.640;2023-05-28T04:49:06;18.40;99.90
40589;DHT22;26297;49.450;6.640;2023-05-28T04:52:09;18.40;99.90
40589;DHT22;26297;49.450;6.640;2023-05-28T04:55:13;18.40;99.90
40589;DHT22;26297;49.450;6.640;2023-05-28T04:58:17;18.40;99.90
40589;DHT22;26297;49.450;6.640;2023-05-28T05:01:20;18.40;99.90
40589;DHT22;26297;49.450;6.640;2023-05-28T05:04:25;18.40;99.90
40589;DHT22;26297;49.450;6.640;2023-05-28T05:07:28;18.40;99.90
40589;DHT22;26297;49.450;6.640;2023-05-28T05:10:31;18.40;99.90
40589;DHT22;26297;49.450;6.640;2023-05-28T05:13:34;18.40;99.90
40589;DHT22;26297;49.450;6.640;2023-05-28T05:16:37;18.40;99.90
40589;DHT22;26297;49.450;6.640;2023-05-28T05:19:40;18.40;99.90
40589;DHT22;26297;49.450;6.640;2023-05-28T05:22:44;18.40;99.90
40589;DHT22;26297;49.450;6.640;2023-05-28T05:25:47;18.40;99.90
40589;DHT22;26297;49.450;6.640;2023-05-28T05:28:51;18.40;99.90
40589;DHT22;26297;49.450;6.640;2023-05-28T05:31:54;18.40;99.90
40589;DHT22;26297;49.450;6.640;2023-05-28T05:34:57;18.40;99.90
40589;DHT22;26297;49.450;6.640;2023-05-28T05:38:00;18.40;99.90
40589;DHT22;26297;49.450;6.640;2023-05-28T05:41:04;18.40;99.90
40589;DHT22;26297;49.450;6.640;2023-05-28T05:44:07;18.40;99.90
40589;DHT22;26297;49.450;6.640;2023-05-28T05:47:10;18.40;99.90
40589;DHT22;26297;49.450;6.640;2023-05-28T05:50:13;18.40;99.90
40589;DHT22;26297;49.450;6.640;2023-05-28T05:53:17;18.40;99.90
40589;DHT22;26297;49.450;6.640;2023-05-28T05:56:23;18.40;99.90
40589;DHT22;26297;49.450;6.640;2023-05-28T05:59:28;18.40;99.90
40589;DHT22;26297;49.450;6.640;2023-05-28T06:02:32;18.40;99.90
40589;DHT22;26297;49.450;6.640;2023-05-28T06:05:36;18.40;99.90
40589;DHT22;26297;49.450;6.640;2023-05-28T06:08:39;18.40;99.90
40589;DHT22;26297;49.450;6.640;2023-05-28T06:11:42;18.40;99.90
40589;DHT22;26297;49.450;6.640;2023-05-28T06:14:46;18.40;99.90
40589;DHT22;26297;49.450;6.640;2023-05-28T06:17:50;18.40;99.90
40589;DHT22;26297;49.450;6.640;2023-05-28T06:20:54;18.40;99.90
40589;DHT22;26297;49.450;6.640;2023-05-28T06:23:57;18.40;99.90
40589;DHT22;26297;49.450;6.640;2023-05-28T06:27:00;18.40;99.90
40589;DHT22;26297;49.450;6.640;2023-05-28T06:30:04;18.40;99.90
40589;DHT22;26297;49.450;6.640;2023-05-28T06:33:07;18.40;99.90
40589;DHT22;26297;49.450;6.640;2023-05-28T06:36:12;18.40;99.90
40589;DHT22;26297;49.450;6.640;2023-05-28T06:39:15;18.40;99.90
40589;DHT22;26297;49.450;6.640;2023-05-28T06:42:18;18.40;99.90
40589;DHT22;26297;49.450;6.640;2023-05-28T06:45:22;18.40;99.90
40589;DHT22;26297;49.450;6.640;2023-05-28T06:48:25;18.40;99.90
40589;DHT22;26297;49.450;6.640;2023-05-28T06:51:28;18.40;99.90
40589;DHT22;26297;49.450;6.640;2023-05-28T06:54:31;18.40;99.90
40589;DHT22;26297;49.450;6.640;2023-05-28T06:57:35;18.40;99.90
40589;DHT22;26297;49.450;6.640;2023-05-28T07:00:39;18.40;99.90
40589;DHT22;26297;49.450;6.640;2023-05-28T07:03:45;18.40;99.90
40589;DHT22;26297;49.450;6.640;2023-05-28T07:06:48;18.40;99.90
40589;DHT22;26297;49.450;6.640;2023-05-28T07:09:58;18.40;99.90
40589;DHT22;26297;49.450;6.640;2023-05-28T07:17:44;18.40;99.90
40589;DHT22;26297;49.450;6.640;2023-05-28T07:20:51;18.40;99.90
40589;DHT22;26297;49.450;6.640;2023-05-28T07:23:58;18.40;99.90
40589;DHT22;26297;49.450;6.640;2023-05-28T07:27:11;18.40;99.90
40589;DHT22;26297;49.450;6.640;2023-05-28T07:30:17;18.40;99.90
40589;DHT22;26297;49.450;6.640;2023-05-28T07:33:21;18.40;99.90
40589;DHT22;26297;49.450;6.640;2023-05-28T07:36:24;18.40;99.90
40589;DHT22;26297;49.450;6.640;2023-05-28T07:39:30;18.40;99.90
40589;DHT22;26297;49.450;6.640;2023-05-28T07:42:34;18.40;99.90
40589;DHT22;26297;49.450;6.640;2023-05-28T07:45:37;18.40;99.90
40589;DHT22;26297;49.450;6.640;2023-05-28T07:48:47;18.40;99.90
40589;DHT22;26297;49.450;6.640;2023-05-28T07:51:58;18.40;99.90
40589;DHT22;26297;49.450;6.640;2023-05-28T07:55:04;18.40;99.90
40589;DHT22;26297;49.450;6.640;2023-05-28T07:58:13;18.40;99.90
40589;DHT22;26297;49.450;6.640;2023-05-28T08:01:15;18.40;99.90
40589;DHT22;26297;49.450;6.640;2023-05-28T08:04:22;18.40;99.90
40589;DHT22;26297;49.450;6.640;2023-05-28T08:07:25;18.40;99.90
40589;DHT22;26297;49.450;6.640;2023-05-28T08:10:29;18.40;99.90
40589;DHT22;26297;49.450;6.640;2023-05-28T08:13:32;18.40;99.90
40589;DHT22;26297;49.450;6.640;2023-05-28T08:16:35;18.40;99.90
40589;DHT22;26297;49.450;6.640;2023-05-28T08:19:38;18.40;99.90
40589;DHT22;26297;49.450;6.640;2023-05-28T08:22:42;18.40;99.90
40589;DHT22;26297;49.450;6.640;2023-05-28T08:25:45;18.40;99.90
40589;DHT22;26297;49.450;6.640;2023-05-28T08:28:48;18.40;99.90
40589;DHT22;26297;49.450;6.640;2023-05-28T08:31:51;18.40;99.90
40589;DHT22;26297;49.450;6.640;2023-05-28T08:34:54;18.40;99.90
40589;DHT22;26297;49.450;6.640;2023-05-28T08:37:58;18.40;99.90
40589;DHT22;26297;49.450;6.640;2023-05-28T08:41:01;18.40;99.90
40589;DHT22;26297;49.450;6.640;2023-05-28T08:44:05;18.40;99.90
40589;DHT22;26297;49.450;6.640;2023-05-28T08:47:08;18.40;99.90
40589;DHT22;26297;49.450;6.640;2023-05-28T08:50:15;18.40;99.90
40589;DHT22;26297;49.450;6.640;2023-05-28T08:53:49;18.40;99.90
40589;DHT22;26297;49.450;6.640;2023-05-28T08:56:53;18.40;99.90
40589;DHT22;26297;49.450;6.640;2023-05-28T08:59:58;18.40;99.90
40589;DHT22;26297;49.450;6.640;2023-05-28T09:03:06;18.40;99.90
40589;DHT22;26297;49.450;6.640;2023-05-28T09:06:11;18.40;99.90
40589;DHT22;26297;49.450;6.640;2023-05-28T09:09:15;18.50;99.90
40589;DHT22;26297;49.450;6.640;2023-05-28T09:12:22;18.40;99.90
40589;DHT22;26297;49.450;6.640;2023-05-28T09:15:26;18.40;99.90
40589;DHT22;26297;49.450;6.640;2023-05-28T09:18:30;18.40;99.90
40589;DHT22;26297;49.450;6.640;2023-05-28T09:21:34;18.40;99.90
40589;DHT22;26297;49.450;6.640;2023-05-28T09:24:37;18.50;99.90
40589;DHT22;26297;49.450;6.640;2023-05-28T09:27:43;18.40;99.90
40589;DHT22;26297;49.450;6.640;2023-05-28T09:30:49;18.40;99.90
40589;DHT22;26297;49.450;6.640;2023-05-28T09:33:52;18.40;99.90
40589;DHT22;26297;49.450;6.640;2023-05-28T09:37:02;18.40;99.90
40589;DHT22;26297;49.450;6.640;2023-05-28T09:40:07;18.40;99.90
40589;DHT22;26297;49.450;6.640;2023-05-28T09:43:13;18.40;99.90
40589;DHT22;26297;49.450;6.640;2023-05-28T09:46:17;18.40;99.90
40589;DHT22;26297;49.450;6.640;2023-05-28T09:49:19;18.40;99.90
40589;DHT22;26297;49.450;6.640;2023-05-28T09:52:22;18.40;99.90
40589;DHT22;26297;49.450;6.640;2023-05-28T09:55:35;18.40;99.90
40589;DHT22;26297;49.450;6.640;2023-05-28T09:58:42;18.40;99.90
40589;DHT22;26297;49.450;6.640;2023-05-28T10:02:01;18.40;99.90
40589;DHT22;26297;49.450;6.640;2023-05-28T10:05:14;18.40;99.90
40589;DHT22;26297;49.450;6.640;2023-05-28T10:08:21;18.40;99.90
40589;DHT22;26297;49.450;6.640;2023-05-28T10:11:30;18.40;99.90
40589;DHT22;26297;49.450;6.640;2023-05-28T10:14:33;18.40;99.90
40589;DHT22;26297;49.450;6.640;2023-05-28T10:17:37;18.40;99.90
40589;DHT22;26297;49.450;6.640;2023-05-28T10:20:42;18.40;99.90
40589;DHT22;26297;49.450;6.640;2023-05-28T10:23:47;18.40;99.90
40589;DHT22;26297;49.450;6.640;2023-05-28T10:27:19;18.40;99.90
40589;DHT22;26297;49.450;6.640;2023-05-28T10:30:41;18.40;99.90
40589;DHT22;26297;49.450;6.640;2023-05-28T10:34:43;18.40;99.90
40589;DHT22;26297;49.450;6.640;2023-05-28T10:38:56;18.40;99.90
40589;DHT22;26297;49.450;6.640;2023-05-28T10:42:08;18.40;99.90
40589;DHT22;26297;49.450;6.640;2023-05-28T10:45:14;18.40;99.90
40589;DHT22;26297;49.450;6.640;2023-05-28T10:48:17;18.40;99.90
40589;DHT22;26297;49.450;6.640;2023-05-28T10:51:21;18.40;99.90
40589;DHT22;26297;49.450;6.640;2023-05-28T10:54:43;18.40;99.90
40589;DHT22;26297;49.450;6.640;2023-05-28T10:58:06;18.40;99.90
40589;DHT22;26297;49.450;6.640;2023-05-28T11:01:23;18.40;99.90
40589;DHT22;26297;49.450;6.640;2023-05-28T11:04:36;18.40;99.90
40589;DHT22;26297;49.450;6.640;2023-05-28T11:07:43;18.40;99.90
40589;DHT22;26297;49.450;6.640;2023-05-28T11:10:51;18.40;99.90
40589;DHT22;26297;49.450;6.640;2023-05-28T11:13:57;18.40;99.90
40589;DHT22;26297;49.450;6.640;2023-05-28T11:17:12;18.40;99.90
40589;DHT22;26297;49.450;6.640;2023-05-28T11:20:33;18.40;99.90
40589;DHT22;26297;49.450;6.640;2023-05-28T11:23:38;18.40;99.90
40589;DHT22;26297;49.450;6.640;2023-05-28T11:26:45;18.40;99.90
40589;DHT22;26297;49.450;6.640;2023-05-28T11:29:54;18.40;99.90
40589;DHT22;26297;49.450;6.640;2023-05-28T11:33:02;18.40;99.90
40589;DHT22;26297;49.450;6.640;2023-05-28T11:36:06;18.40;99.90
40589;DHT22;26297;49.450;6.640;2023-05-28T11:39:10;18.40;99.90
40589;DHT22;26297;49.450;6.640;2023-05-28T11:42:13;18.40;99.90
40589;DHT22;26297;49.450;6.640;2023-05-28T11:45:19;18.40;99.90
40589;DHT22;26297;49.450;6.640;2023-05-28T11:48:26;18.40;99.90
40589;DHT22;26297;49.450;6.640;2023-05-28T11:51:32;18.40;99.90
40589;DHT22;26297;49.450;6.640;2023-05-28T11:54:54;18.40;99.90
40589;DHT22;26297;49.450;6.640;2023-05-28T11:58:11;18.40;99.90
40589;DHT22;26297;49.450;6.640;2023-05-28T12:01:16;18.40;99.90
40589;DHT22;26297;49.450;6.640;2023-05-28T12:04:26;18.40;99.90
40589;DHT22;26297;49.450;6.640;2023-05-28T12:07:34;18.40;99.90
40589;DHT22;26297;49.450;6.640;2023-05-28T12:10:40;18.40;99.90
40589;DHT22;26297;49.450;6.640;2023-05-28T12:13:46;18.40;99.90
40589;DHT22;26297;49.450;6.640;2023-05-28T12:17:20;18.40;99.90
40589;DHT22;26297;49.450;6.640;2023-05-28T12:20:40;18.40;99.90
40589;DHT22;26297;49.450;6.640;2023-05-28T12:24:10;18.40;99.90
40589;DHT22;26297;49.450;6.640;2023-05-28T12:27:16;18.50;99.90
40589;DHT22;26297;49.450;6.640;2023-05-28T12:30:27;18.40;99.90
40589;DHT22;26297;49.450;6.640;2023-05-28T12:33:37;18.40;99.90
40589;DHT22;26297;49.450;6.640;2023-05-28T12:36:40;18.40;99.90
40589;DHT22;26297;49.450;6.640;2023-05-28T12:39:44;18.50;99.90
40589;DHT22;26297;49.450;6.640;2023-05-28T12:42:50;18.50;99.90
40589;DHT22;26297;49.450;6.640;2023-05-28T12:45:58;18.50;99.90
40589;DHT22;26297;49.450;6.640;2023-05-28T12:49:01;18.40;99.90
40589;DHT22;26297;49.450;6.640;2023-05-28T12:52:04;18.40;99.90
40589;DHT22;26297;49.450;6.640;2023-05-28T12:55:10;18.40;99.90
40589;DHT22;26297;49.450;6.640;2023-05-28T12:58:16;18.50;99.90
40589;DHT22;26297;49.450;6.640;2023-05-28T13:01:27;18.40;99.90
40589;DHT22;26297;49.450;6.640;2023-05-28T13:04:34;18.40;99.90
40589;DHT22;26297;49.450;6.640;2023-05-28T13:07:43;18.40;99.90
40589;DHT22;26297;49.450;6.640;2023-05-28T13:10:49;18.40;99.90
40589;DHT22;26297;49.450;6.640;2023-05-28T13:13:56;18.40;99.90
40589;DHT22;26297;49.450;6.640;2023-05-28T13:16:59;18.40;99.90
40589;DHT22;26297;49.450;6.640;2023-05-28T13:20:06;18.40;99.90
40589;DHT22;26297;49.450;6.640;2023-05-28T13:27:30;18.40;99.90
40589;DHT22;26297;49.450;6.640;2023-05-28T13:30:42;18.50;99.90
40589;DHT22;26297;49.450;6.640;2023-05-28T13:33:49;18.40;99.90
40589;DHT22;26297;49.450;6.640;2023-05-28T13:36:55;18.40;99.90
40589;DHT22;26297;49.450;6.640;2023-05-28T13:39:59;18.40;99.90
40589;DHT22;26297;49.450;6.640;2023-05-28T13:43:05;18.50;99.90
40589;DHT22;26297;49.450;6.640;2023-05-28T13:46:12;18.40;99.90
40589;DHT22;26297;49.450;6.640;2023-05-28T13:49:19;18.50;99.90
40589;DHT22;26297;49.450;6.640;2023-05-28T13:52:22;18.40;99.90
40589;DHT22;26297;49.450;6.640;2023-05-28T13:55:34;18.40;99.90
40589;DHT22;26297;49.450;6.640;2023-05-28T13:58:37;18.50;99.90
40589;DHT22;26297;49.450;6.640;2023-05-28T14:01:40;18.50;99.90
40589;DHT22;26297;49.450;6.640;2023-05-28T14:04:46;18.50;99.90
40589;DHT22;26297;49.450;6.640;2023-05-28T14:07:50;18.50;99.90
40589;DHT22;26297;49.450;6.640;2023-05-28T14:11:01;18.50;99.90
40589;DHT22;26297;49.450;6.640;2023-05-28T14:14:07;18.40;99.90
40589;DHT22;26297;49.450;6.640;2023-05-28T14:17:10;18.40;99.90
40589;DHT22;26297;49.450;6.640;2023-05-28T14:20:14;18.40;99.90
40589;DHT22;26297;49.450;6.640;2023-05-28T14:23:21;18.40;99.90
40589;DHT22;26297;49.450;6.640;2023-05-28T14:26:24;18.40;99.90
40589;DHT22;26297;49.450;6.640;2023-05-28T14:29:28;18.40;99.90
40589;DHT22;26297;49.450;6.640;2023-05-28T14:32:38;18.40;99.90
40589;DHT22;26297;49.450;6.640;2023-05-28T14:39:54;18.50;99.90
40589;DHT22;26297;49.450;6.640;2023-05-28T14:42:58;18.50;99.90
40589;DHT22;26297;49.450;6.640;2023-05-28T14:46:04;18.50;99.90
40589;DHT22;26297;49.450;6.640;2023-05-28T14:49:10;18.60;99.90
40589;DHT22;26297;49.450;6.640;2023-05-28T14:52:24;18.50;99.90
40589;DHT22;26297;49.450;6.640;2023-05-28T14:55:28;18.50;99.90
40589;DHT22;26297;49.450;6.640;2023-05-28T14:58:32;18.50;99.90
40589;DHT22;26297;49.450;6.640;2023-05-28T15:01:35;18.50;99.90
40589;DHT22;26297;49.450;6.640;2023-05-28T15:04:45;18.50;99.90
40589;DHT22;26297;49.450;6.640;2023-05-28T15:07:50;18.50;99.90
40589;DHT22;26297;49.450;6.640;2023-05-28T15:10:53;18.50;99.90
40589;DHT22;26297;49.450;6.640;2023-05-28T15:13:57;18.50;99.90
40589;DHT22;26297;49.450;6.640;2023-05-28T15:17:03;18.50;99.90
40589;DHT22;26297;49.450;6.640;2023-05-28T15:20:06;18.50;99.90
40589;DHT22;26297;49.450;6.640;2023-05-28T15:23:10;18.60;99.90
40589;DHT22;26297;49.450;6.640;2023-05-28T15:26:13;18.60;99.90
40589;DHT22;26297;49.450;6.640;2023-05-28T15:29:20;18.70;99.90
40589;DHT22;26297;49.450;6.640;2023-05-28T15:32:25;18.60;99.90
40589;DHT22;26297;49.450;6.640;2023-05-28T15:35:30;18.70;99.90
40589;DHT22;26297;49.450;6.640;2023-05-28T15:38:33;18.70;99.90
40589;DHT22;26297;49.450;6.640;2023-05-28T15:41:37;18.80;99.90
40589;DHT22;26297;49.450;6.640;2023-05-28T15:44:41;18.70;99.90
40589;DHT22;26297;49.450;6.640;2023-05-28T15:47:51;18.80;99.90
40589;DHT22;26297;49.450;6.640;2023-05-28T15:50:57;18.70;99.90
40589;DHT22;26297;49.450;6.640;2023-05-28T15:54:15;18.70;99.90
40589;DHT22;26297;49.450;6.640;2023-05-28T15:57:24;18.70;99.90
40589;DHT22;26297;49.450;6.640;2023-05-28T16:00:28;18.70;99.90
40589;DHT22;26297;49.450;6.640;2023-05-28T16:03:50;18.80;99.90
40589;DHT22;26297;49.450;6.640;2023-05-28T16:07:00;18.80;99.90
40589;DHT22;26297;49.450;6.640;2023-05-28T16:10:03;18.80;99.90
40589;DHT22;26297;49.450;6.640;2023-05-28T16:13:08;18.70;99.90
40589;DHT22;26297;49.450;6.640;2023-05-28T16:16:16;18.70;99.90
40589;DHT22;26297;49.450;6.640;2023-05-28T16:19:21;18.70;99.90
40589;DHT22;26297;49.450;6.640;2023-05-28T16:22:25;18.80;99.90
40589;DHT22;26297;49.450;6.640;2023-05-28T16:25:31;18.70;99.90
40589;DHT22;26297;49.450;6.640;2023-05-28T16:33:11;18.70;99.90
40589;DHT22;26297;49.450;6.640;2023-05-28T16:36:15;18.70;99.90
40589;DHT22;26297;49.450;6.640;2023-05-28T16:39:19;18.70;99.90
40589;DHT22;26297;49.450;6.640;2023-05-28T16:42:25;18.80;99.90
40589;DHT22;26297;49.450;6.640;2023-05-28T16:45:28;18.70;99.90
40589;DHT22;26297;49.450;6.640;2023-05-28T16:48:32;18.70;99.90
40589;DHT22;26297;49.450;6.640;2023-05-28T16:51:38;18.70;99.90
40589;DHT22;26297;49.450;6.640;2023-05-28T16:54:45;18.70;99.90
40589;DHT22;26297;49.450;6.640;2023-05-28T16:57:51;18.70;99.90
40589;DHT22;26297;49.450;6.640;2023-05-28T17:00:54;18.70;99.90
40589;DHT22;26297;49.450;6.640;2023-05-28T17:03:58;18.70;99.90
40589;DHT22;26297;49.450;6.640;2023-05-28T17:07:02;18.80;99.90
40589;DHT22;26297;49.450;6.640;2023-05-28T17:10:05;18.80;99.90
40589;DHT22;26297;49.450;6.640;2023-05-28T17:13:09;18.80;99.90
40589;DHT22;26297;49.450;6.640;2023-05-28T17:16:12;18.70;99.90
40589;DHT22;26297;49.450;6.640;2023-05-28T17:19:15;18.70;99.90
40589;DHT22;26297;49.450;6.640;2023-05-28T17:22:20;18.70;99.90
40589;DHT22;26297;49.450;6.640;2023-05-28T17:25:23;18.70;99.90
40589;DHT22;26297;49.450;6.640;2023-05-28T17:28:26;18.80;99.90
40589;DHT22;26297;49.450;6.640;2023-05-28T17:31:33;18.80;99.90
40589;DHT22;26297;49.450;6.640;2023-05-28T17:34:53;18.80;99.90
40589;DHT22;26297;49.450;6.640;2023-05-28T17:42:27;18.70;99.90
40589;DHT22;26297;49.450;6.640;2023-05-28T17:53:24;18.70;99.90
40589;DHT22;26297;49.450;6.640;2023-05-28T17:56:28;18.70;99.90
40589;DHT22;26297;49.450;6.640;2023-05-28T17:59:35;18.70;99.90
40589;DHT22;26297;49.450;6.640;2023-05-28T18:02:38;18.70;99.90
40589;DHT22;26297;49.450;6.640;2023-05-28T18:05:42;18.70;99.90
40589;DHT22;26297;49.450;6.640;2023-05-28T18:08:45;18.70;99.90
40589;DHT22;26297;49.450;6.640;2023-05-28T18:11:50;18.70;99.90
40589;DHT22;26297;49.450;6.640;2023-05-28T18:14:53;18.70;99.90
40589;DHT22;26297;49.450;6.640;2023-05-28T18:17:56;18.70;99.90
40589;DHT22;26297;49.450;6.640;2023-05-28T18:20:59;18.70;99.90
40589;DHT22;26297;49.450;6.640;2023-05-28T18:24:06;18.70;99.90
40589;DHT22;26297;49.450;6.640;2023-05-28T18:27:10;18.80;99.90
40589;DHT22;26297;49.450;6.640;2023-05-28T18:30:14;18.70;99.90
40589;DHT22;26297;49.450;6.640;2023-05-28T18:33:17;18.80;99.90
40589;DHT22;26297;49.450;6.640;2023-05-28T18:36:41;18.80;99.90
40589;DHT22;26297;49.450;6.640;2023-05-28T18:39:48;18.80;99.90
40589;DHT22;26297;49.450;6.640;2023-05-28T18:42:52;18.80;99.90
40589;DHT22;26297;49.450;6.640;2023-05-28T18:45:59;18.80;99.90
40589;DHT22;26297;49.450;6.640;2023-05-28T18:49:12;18.80;99.90
40589;DHT22;26297;49.450;6.640;2023-05-28T19:00:29;18.80;99.90
40589;DHT22;26297;49.450;6.640;2023-05-28T19:03:33;18.80;99.90
40589;DHT22;26297;49.450;6.640;2023-05-28T19:06:39;18.80;99.90
40589;DHT22;26297;49.450;6.640;2023-05-28T19:09:54;18.80;99.90
40589;DHT22;26297;49.450;6.640;2023-05-28T19:12:59;18.80;99.90
40589;DHT22;26297;49.450;6.640;2023-05-28T19:16:02;18.80;99.90
40589;DHT22;26297;49.450;6.640;2023-05-28T19:19:05;18.80;99.90
40589;DHT22;26297;49.450;6.640;2023-05-28T19:22:12;18.90;99.90
40589;DHT22;26297;49.450;6.640;2023-05-28T19:25:15;18.90;99.90
40589;DHT22;26297;49.450;6.640;2023-05-28T19:28:19;18.90;99.90
40589;DHT22;26297;49.450;6.640;2023-05-28T19:31:22;18.90;99.90
40589;DHT22;26297;49.450;6.640;2023-05-28T19:34:29;18.90;99.90
40589;DHT22;26297;49.450;6.640;2023-05-28T19:37:35;18.90;99.90
40589;DHT22;26297;49.450;6.640;2023-05-28T19:40:50;18.90;99.90
40589;DHT22;26297;49.450;6.640;2023-05-28T19:47:49;18.90;99.90
40589;DHT22;26297;49.450;6.640;2023-05-28T19:50:55;18.90;99.90
40589;DHT22;26297;49.450;6.640;2023-05-28T19:54:01;19.00;99.90
40589;DHT22;26297;49.450;6.640;2023-05-28T19:57:07;19.00;99.90
40589;DHT22;26297;49.450;6.640;2023-05-28T20:05:51;19.00;99.90
40589;DHT22;26297;49.450;6.640;2023-05-28T20:09:20;19.00;99.90
40589;DHT22;26297;49.450;6.640;2023-05-28T20:19:14;19.00;99.90
40589;DHT22;26297;49.450;6.640;2023-05-28T20:22:46;19.00;99.90
40589;DHT22;26297;49.450;6.640;2023-05-28T20:26:11;19.00;99.90
40589;DHT22;26297;49.450;6.640;2023-05-28T20:29:16;19.10;99.90
40589;DHT22;26297;49.450;6.640;2023-05-28T20:38:24;19.00;99.90
40589;DHT22;26297;49.450;6.640;2023-05-28T20:54:08;19.10;99.90
40589;DHT22;26297;49.450;6.640;2023-05-28T21:01:37;19.10;99.90
40589;DHT22;26297;49.450;6.640;2023-05-28T21:07:32;19.10;99.90
40589;DHT22;26297;49.450;6.640;2023-05-28T21:43:01;19.10;99.90
40589;DHT22;26297;49.450;6.640;2023-05-28T21:46:39;19.10;99.90